createdAt,value
2023-02-11T00:00:32.252Z,0
2023-02-11T00:01:32.340Z,0
2023-02-11T00:02:32.317Z,0
2023-02-11T00:03:32.402Z,0
2023-02-11T00:04:32.281Z,0
2023-02-11T00:05:32.259Z,0
2023-02-11T00:06:32.268Z,0
2023-02-11T00:07:32.331Z,0
2023-02-11T00:08:40.198Z,0
2023-02-11T00:09:44.200Z,0
2023-02-11T00:10:48.457Z,0
2023-02-11T00:11:52.230Z,0
2023-02-11T00:12:56.213Z,0
2023-02-11T00:14:00.182Z,0
2023-02-11T00:15:04.218Z,0
2023-02-11T00:16:08.192Z,0
2023-02-11T00:17:12.206Z,0
2023-02-11T00:18:16.178Z,0
2023-02-11T00:19:20.229Z,0
2023-02-11T00:20:24.186Z,0
2023-02-11T00:21:28.214Z,0
2023-02-11T00:22:31.269Z,0
2023-02-11T00:23:31.246Z,0
2023-02-11T00:24:31.217Z,0
2023-02-11T00:25:31.262Z,0
2023-02-11T00:26:31.248Z,0
2023-02-11T00:27:31.333Z,0
2023-02-11T00:28:31.355Z,0
2023-02-11T00:29:31.265Z,0
2023-02-11T00:30:31.288Z,0
2023-02-11T00:31:31.338Z,0
2023-02-11T00:32:31.240Z,0
2023-02-11T00:33:31.314Z,0
2023-02-11T00:34:31.274Z,0
2023-02-11T00:35:31.248Z,0
2023-02-11T00:36:31.220Z,0
2023-02-11T00:37:31.241Z,0
2023-02-11T00:38:31.256Z,0
2023-02-11T00:39:31.268Z,0
2023-02-11T00:40:31.295Z,0
2023-02-11T00:41:31.284Z,0
2023-02-11T00:42:31.268Z,0
2023-02-11T00:43:31.341Z,0
2023-02-11T00:44:31.254Z,0
2023-02-11T00:45:31.240Z,0
2023-02-11T00:46:31.272Z,0
2023-02-11T00:47:31.250Z,0
2023-02-11T00:48:31.240Z,0
2023-02-11T00:49:31.231Z,0
2023-02-11T00:50:31.231Z,0
2023-02-11T00:51:31.255Z,0
2023-02-11T00:52:31.232Z,0
2023-02-11T00:53:31.234Z,0
2023-02-11T00:54:31.305Z,0
2023-02-11T00:55:31.312Z,0
2023-02-11T00:56:31.274Z,0
2023-02-11T00:57:31.269Z,0
2023-02-11T00:58:31.262Z,0
2023-02-11T00:59:31.264Z,0
2023-02-11T01:00:31.247Z,0
2023-02-11T01:01:31.297Z,0
2023-02-11T01:02:31.231Z,0
2023-02-11T01:03:31.249Z,0
2023-02-11T01:04:31.239Z,0
2023-02-11T01:05:31.264Z,0
2023-02-11T01:06:31.239Z,0
2023-02-11T01:07:31.302Z,0
2023-02-11T01:08:31.224Z,0
2023-02-11T01:09:31.235Z,0
2023-02-11T01:10:31.229Z,0
2023-02-11T01:11:31.227Z,0
2023-02-11T01:12:31.235Z,0
2023-02-11T01:13:31.244Z,0
2023-02-11T01:14:31.230Z,0
2023-02-11T01:15:31.267Z,0
2023-02-11T01:16:31.235Z,0
2023-02-11T01:17:31.294Z,0
2023-02-11T01:18:31.220Z,0
2023-02-11T01:19:31.284Z,0
2023-02-11T01:20:31.224Z,0
2023-02-11T01:21:31.260Z,0
2023-02-11T01:22:31.252Z,0
2023-02-11T01:23:31.273Z,0
2023-02-11T01:24:31.249Z,0
2023-02-11T01:25:31.256Z,0
2023-02-11T01:26:31.231Z,0
2023-02-11T01:27:31.249Z,0
2023-02-11T01:28:31.365Z,0
2023-02-11T01:29:31.245Z,0
2023-02-11T01:30:31.237Z,0
2023-02-11T01:31:31.494Z,0
2023-02-11T01:32:31.220Z,0
2023-02-11T01:33:31.254Z,0
2023-02-11T01:34:31.223Z,0
2023-02-11T01:35:31.251Z,0
2023-02-11T01:36:31.241Z,0
2023-02-11T01:37:31.257Z,0
2023-02-11T01:38:31.233Z,0
2023-02-11T01:39:31.275Z,0
2023-02-11T01:40:31.380Z,0
2023-02-11T01:41:31.399Z,0
2023-02-11T01:42:31.381Z,0
2023-02-11T01:43:31.412Z,0
2023-02-11T01:44:31.351Z,0
2023-02-11T01:45:31.351Z,0
2023-02-11T01:46:31.449Z,0
2023-02-11T01:47:31.398Z,0
2023-02-11T01:48:31.399Z,0
2023-02-11T01:49:31.481Z,0
2023-02-11T01:50:31.429Z,0
2023-02-11T01:51:31.404Z,0
2023-02-11T01:52:31.437Z,0
2023-02-11T01:53:31.350Z,0
2023-02-11T01:54:31.332Z,0
2023-02-11T01:55:31.510Z,0
2023-02-11T01:56:31.217Z,0
2023-02-11T01:57:31.269Z,0
2023-02-11T01:58:31.229Z,0
2023-02-11T01:59:31.273Z,0
2023-02-11T02:00:31.239Z,0
2023-02-11T02:01:31.292Z,0
2023-02-11T02:02:31.222Z,0
2023-02-11T02:03:31.258Z,0
2023-02-11T02:04:31.229Z,0
2023-02-11T02:05:31.406Z,0
2023-02-11T02:06:31.230Z,0
2023-02-11T02:07:31.289Z,0
2023-02-11T02:08:31.235Z,0
2023-02-11T02:09:31.292Z,0
2023-02-11T02:10:31.221Z,0
2023-02-11T02:11:31.248Z,0
2023-02-11T02:12:31.231Z,0
2023-02-11T02:13:31.290Z,0
2023-02-11T02:14:31.232Z,0
2023-02-11T02:15:31.263Z,0
2023-02-11T02:16:31.220Z,0
2023-02-11T02:17:31.246Z,0
2023-02-11T02:18:31.301Z,0
2023-02-11T02:19:31.247Z,0
2023-02-11T02:20:31.212Z,0
2023-02-11T02:21:31.245Z,0
2023-02-11T02:22:31.209Z,0
2023-02-11T02:23:31.328Z,0
2023-02-11T02:24:31.247Z,0
2023-02-11T02:25:31.230Z,0
2023-02-11T02:26:31.282Z,0
2023-02-11T02:27:31.241Z,0
2023-02-11T02:28:31.318Z,0
2023-02-11T02:29:31.215Z,0
2023-02-11T02:30:31.274Z,0
2023-02-11T02:31:31.290Z,0
2023-02-11T02:32:31.249Z,0
2023-02-11T02:33:31.235Z,0
2023-02-11T02:34:31.221Z,0
2023-02-11T02:35:31.264Z,0
2023-02-11T02:36:31.217Z,0
2023-02-11T02:37:31.247Z,0
2023-02-11T02:38:31.259Z,0
2023-02-11T02:39:31.229Z,0
2023-02-11T02:40:31.238Z,0
2023-02-11T02:41:31.206Z,0
2023-02-11T02:42:31.267Z,0
2023-02-11T02:43:31.247Z,0
2023-02-11T02:44:31.198Z,0
2023-02-11T02:45:31.243Z,0
2023-02-11T02:46:31.319Z,0
2023-02-11T02:47:31.244Z,0
2023-02-11T02:48:31.228Z,0
2023-02-11T02:49:31.221Z,0
2023-02-11T02:50:31.322Z,0
2023-02-11T02:51:31.231Z,0
2023-02-11T02:52:31.228Z,0
2023-02-11T02:53:31.260Z,0
2023-02-11T02:54:31.279Z,0
2023-02-11T02:55:31.237Z,0
2023-02-11T02:56:31.221Z,0
2023-02-11T02:57:31.284Z,0
2023-02-11T02:58:31.255Z,0
2023-02-11T02:59:31.230Z,0
2023-02-11T03:00:31.324Z,0
2023-02-11T03:01:31.252Z,0
2023-02-11T03:02:31.231Z,0
2023-02-11T03:03:31.349Z,0
2023-02-11T03:04:31.242Z,0
2023-02-11T03:05:31.265Z,0
2023-02-11T03:06:31.273Z,0
2023-02-11T03:07:31.241Z,0
2023-02-11T03:08:31.236Z,0
2023-02-11T03:09:31.220Z,0
2023-02-11T03:10:31.280Z,0
2023-02-11T03:11:31.337Z,0
2023-02-11T03:12:31.214Z,0
2023-02-11T03:13:31.239Z,0
2023-02-11T03:14:31.238Z,0
2023-02-11T03:15:31.237Z,0
2023-02-11T03:16:31.376Z,0
2023-02-11T03:17:31.255Z,0
2023-02-11T03:18:31.273Z,0
2023-02-11T03:19:31.273Z,0
2023-02-11T03:20:31.250Z,0
2023-02-11T03:21:31.232Z,0
2023-02-11T03:22:31.397Z,0
2023-02-11T03:23:31.323Z,0
2023-02-11T03:24:31.351Z,0
2023-02-11T03:25:31.238Z,0
2023-02-11T03:26:31.256Z,0
2023-02-11T03:27:31.303Z,0
2023-02-11T03:28:31.454Z,0
2023-02-11T03:29:31.209Z,0
2023-02-11T03:30:31.366Z,0
2023-02-11T03:31:31.640Z,0
2023-02-11T03:32:31.321Z,0
2023-02-11T03:33:31.288Z,0
2023-02-11T03:34:31.340Z,0
2023-02-11T03:35:31.366Z,0
2023-02-11T03:36:31.269Z,0
2023-02-11T03:37:31.219Z,0
2023-02-11T03:38:31.411Z,0
2023-02-11T03:39:31.226Z,0
2023-02-11T03:40:31.347Z,0
2023-02-11T03:41:31.370Z,0
2023-02-11T03:42:31.380Z,0
2023-02-11T03:43:31.262Z,0
2023-02-11T03:44:31.352Z,0
2023-02-11T03:45:31.373Z,0
2023-02-11T03:46:31.456Z,0
2023-02-11T03:47:31.314Z,0
2023-02-11T03:48:31.328Z,0
2023-02-11T03:49:31.221Z,0
2023-02-11T03:50:31.306Z,0
2023-02-11T03:51:31.235Z,0
2023-02-11T03:52:31.235Z,0
2023-02-11T03:53:31.212Z,0
2023-02-11T03:54:31.286Z,0
2023-02-11T03:55:31.226Z,0
2023-02-11T03:56:31.218Z,0
2023-02-11T03:57:31.226Z,0
2023-02-11T03:58:31.285Z,0
2023-02-11T03:59:31.244Z,0
2023-02-11T04:00:31.210Z,0
2023-02-11T04:01:31.287Z,0
2023-02-11T04:02:31.237Z,0
2023-02-11T04:03:31.288Z,0
2023-02-11T04:04:31.222Z,0
2023-02-11T04:05:31.238Z,0
2023-02-11T04:06:31.264Z,0
2023-02-11T04:07:31.217Z,0
2023-02-11T04:08:31.224Z,0
2023-02-11T04:09:31.263Z,0
2023-02-11T04:10:31.244Z,0
2023-02-11T04:11:31.225Z,0
2023-02-11T04:12:31.224Z,0
2023-02-11T04:13:31.189Z,0
2023-02-11T04:14:31.245Z,0
2023-02-11T04:15:31.212Z,0
2023-02-11T04:16:31.282Z,0
2023-02-11T04:17:31.241Z,0
2023-02-11T04:18:31.260Z,0
2023-02-11T04:19:31.237Z,0
2023-02-11T04:20:31.212Z,0
2023-02-11T04:21:31.231Z,0
2023-02-11T04:22:31.253Z,0
2023-02-11T04:23:31.303Z,0
2023-02-11T04:24:31.255Z,0
2023-02-11T04:25:31.266Z,0
2023-02-11T04:26:31.250Z,0
2023-02-11T04:27:31.254Z,0
2023-02-11T04:28:31.308Z,0
2023-02-11T04:29:31.225Z,0
2023-02-11T04:30:31.187Z,0
2023-02-11T04:31:31.260Z,0
2023-02-11T04:32:31.214Z,0
2023-02-11T04:33:31.255Z,0
2023-02-11T04:34:31.204Z,0
2023-02-11T04:35:31.292Z,0
2023-02-11T04:36:31.220Z,0
2023-02-11T04:37:31.229Z,0
2023-02-11T04:38:31.205Z,0
2023-02-11T04:39:31.234Z,0
2023-02-11T04:40:31.210Z,0
2023-02-11T04:41:31.215Z,0
2023-02-11T04:42:31.195Z,0
2023-02-11T04:43:31.255Z,0
2023-02-11T04:44:31.217Z,0
2023-02-11T04:45:31.230Z,0
2023-02-11T04:46:31.252Z,0
2023-02-11T04:47:31.258Z,0
2023-02-11T04:48:31.239Z,0
2023-02-11T04:49:31.245Z,0
2023-02-11T04:50:31.218Z,0
2023-02-11T04:51:31.231Z,0
2023-02-11T04:52:31.209Z,0
2023-02-11T04:53:31.274Z,0
2023-02-11T04:54:31.245Z,0
2023-02-11T04:55:31.232Z,0
2023-02-11T04:56:31.221Z,0
2023-02-11T04:57:31.245Z,0
2023-02-11T04:58:31.249Z,0
2023-02-11T04:59:31.266Z,0
2023-02-11T05:00:31.262Z,0
2023-02-11T05:01:31.286Z,0
2023-02-11T05:02:31.226Z,0
2023-02-11T05:03:31.252Z,0
2023-02-11T05:04:31.266Z,0
2023-02-11T05:05:31.232Z,0
2023-02-11T05:06:31.213Z,0
2023-02-11T05:07:31.250Z,0
2023-02-11T05:08:31.381Z,0
2023-02-11T05:09:31.228Z,0
2023-02-11T05:10:31.197Z,0
2023-02-11T05:11:31.236Z,0
2023-02-11T05:12:31.202Z,0
2023-02-11T05:13:31.223Z,0
2023-02-11T05:14:31.230Z,0
2023-02-11T05:15:31.248Z,0
2023-02-11T05:16:31.269Z,0
2023-02-11T05:17:31.211Z,0
2023-02-11T05:18:31.191Z,0
2023-02-11T05:19:31.254Z,0
2023-02-11T05:20:31.252Z,0
2023-02-11T05:21:31.202Z,0
2023-02-11T05:22:31.228Z,0
2023-02-11T05:23:31.233Z,0
2023-02-11T05:24:31.239Z,0
2023-02-11T05:25:31.225Z,0
2023-02-11T05:26:31.199Z,0
2023-02-11T05:27:31.215Z,0
2023-02-11T05:28:31.305Z,0
2023-02-11T05:29:31.200Z,0
2023-02-11T05:30:31.279Z,0
2023-02-11T05:31:31.210Z,0
2023-02-11T05:32:31.226Z,0
2023-02-11T05:33:31.224Z,0
2023-02-11T05:34:31.215Z,0
2023-02-11T05:35:31.194Z,0
2023-02-11T05:36:33.321Z,0
2023-02-11T05:37:31.304Z,0
2023-02-11T05:38:31.235Z,0
2023-02-11T05:39:31.229Z,0
2023-02-11T05:40:31.244Z,0
2023-02-11T05:41:31.217Z,0
2023-02-11T05:42:31.292Z,0
2023-02-11T05:43:31.193Z,0
2023-02-11T05:44:31.207Z,0
2023-02-11T05:45:31.243Z,0
2023-02-11T05:46:31.299Z,0
2023-02-11T05:47:31.193Z,0
2023-02-11T05:48:31.224Z,0
2023-02-11T05:49:31.206Z,0
2023-02-11T05:50:31.242Z,0
2023-02-11T05:51:31.399Z,0
2023-02-11T05:52:31.210Z,0
2023-02-11T05:53:31.200Z,0
2023-02-11T05:54:31.195Z,0
2023-02-11T05:55:31.259Z,0
2023-02-11T05:56:31.238Z,0
2023-02-11T05:57:31.203Z,0
2023-02-11T05:58:31.207Z,0
2023-02-11T05:59:31.199Z,0
2023-02-11T06:00:31.260Z,0
2023-02-11T06:01:31.242Z,0
2023-02-11T06:02:31.395Z,0
2023-02-11T06:03:31.254Z,0
2023-02-11T06:04:31.236Z,0
2023-02-11T06:05:31.258Z,0
2023-02-11T06:06:31.217Z,0
2023-02-11T06:07:31.200Z,0
2023-02-11T06:08:31.236Z,0
2023-02-11T06:09:31.260Z,0
2023-02-11T06:10:31.232Z,0
2023-02-11T06:11:31.198Z,0
2023-02-11T06:12:31.214Z,0
2023-02-11T06:13:31.201Z,0
2023-02-11T06:14:31.222Z,0
2023-02-11T06:15:31.189Z,0
2023-02-11T06:16:31.316Z,0
2023-02-11T06:17:31.206Z,0
2023-02-11T06:18:31.227Z,0
2023-02-11T06:19:31.231Z,0
2023-02-11T06:20:31.286Z,0
2023-02-11T06:21:42.883Z,0
2023-02-11T06:22:31.216Z,0
2023-02-11T06:23:31.218Z,0
2023-02-11T06:24:54.753Z,0
2023-02-11T06:25:31.261Z,0
2023-02-11T06:26:31.191Z,0
2023-02-11T06:27:31.256Z,0
2023-02-11T06:28:31.328Z,0
2023-02-11T06:29:31.203Z,0
2023-02-11T06:30:31.201Z,0
2023-02-11T06:31:31.343Z,0
2023-02-11T06:32:43.396Z,0
2023-02-11T06:33:31.236Z,0
2023-02-11T06:34:31.186Z,0
2023-02-11T06:35:31.305Z,0.36
2023-02-11T06:36:31.213Z,0
2023-02-11T06:37:31.293Z,0.36
2023-02-11T06:38:31.189Z,0.85
2023-02-11T06:39:31.221Z,0.85
2023-02-11T06:40:31.219Z,0.85
2023-02-11T06:41:31.208Z,1.71
2023-02-11T06:42:31.367Z,1.22
2023-02-11T06:43:31.251Z,1.71
2023-02-11T06:44:31.202Z,2.08
2023-02-11T06:45:31.211Z,1.71
2023-02-11T06:46:31.292Z,1.22
2023-02-11T06:47:31.274Z,2.08
2023-02-11T06:48:31.200Z,2.57
2023-02-11T06:49:31.194Z,2.57
2023-02-11T06:50:31.196Z,2.57
2023-02-11T06:51:31.241Z,2.08
2023-02-11T06:52:31.222Z,3.79
2023-02-11T06:53:31.200Z,4.28
2023-02-11T06:54:31.176Z,4.28
2023-02-11T06:55:31.296Z,5.14
2023-02-11T06:56:31.208Z,5.99
2023-02-11T06:57:31.268Z,5.99
2023-02-11T06:58:31.214Z,6.48
2023-02-11T06:59:31.275Z,7.7
2023-02-11T07:00:31.268Z,7.34
2023-02-11T07:01:31.248Z,7.7
2023-02-11T07:02:31.314Z,7.7
2023-02-11T07:03:31.230Z,9.05
2023-02-11T07:04:31.213Z,11.25
2023-02-11T07:05:31.213Z,9.91
2023-02-11T07:06:31.230Z,12.11
2023-02-11T07:07:33.913Z,13.33
2023-02-11T07:08:31.208Z,12.11
2023-02-11T07:09:31.228Z,13.82
2023-02-11T07:10:31.218Z,11.25
2023-02-11T07:11:31.212Z,9.54
2023-02-11T07:12:31.181Z,12.97
2023-02-11T07:13:31.199Z,13.82
2023-02-11T07:14:31.182Z,12.11
2023-02-11T07:15:31.231Z,10.39
2023-02-11T07:16:31.245Z,14.31
2023-02-11T07:17:31.223Z,11.62
2023-02-11T07:18:31.204Z,12.97
2023-02-11T07:19:31.212Z,11.62
2023-02-11T07:20:31.229Z,11.62
2023-02-11T07:21:31.229Z,9.05
2023-02-11T07:22:31.221Z,11.25
2023-02-11T07:23:31.209Z,9.91
2023-02-11T07:24:31.168Z,9.05
2023-02-11T07:25:31.178Z,9.91
2023-02-11T07:26:31.248Z,9.05
2023-02-11T07:27:31.197Z,9.91
2023-02-11T07:28:31.256Z,11.25
2023-02-11T07:29:31.181Z,11.25
2023-02-11T07:30:31.260Z,10.39
2023-02-11T07:31:31.432Z,12.11
2023-02-11T07:32:31.214Z,13.33
2023-02-11T07:33:31.209Z,12.11
2023-02-11T07:34:31.256Z,10.77
2023-02-11T07:35:31.183Z,11.62
2023-02-11T07:36:31.277Z,14.31
2023-02-11T07:37:31.208Z,15.53
2023-02-11T07:38:31.231Z,18.6
2023-02-11T07:39:31.214Z,16.88
2023-02-11T07:40:31.194Z,14.31
2023-02-11T07:41:31.184Z,16.39
2023-02-11T07:42:31.235Z,16.39
2023-02-11T07:43:31.178Z,17.25
2023-02-11T07:44:31.203Z,19.08
2023-02-11T07:45:31.201Z,17.73
2023-02-11T07:46:31.234Z,18.11
2023-02-11T07:47:31.188Z,22.02
2023-02-11T07:48:31.239Z,22.02
2023-02-11T07:49:31.268Z,21.65
2023-02-11T07:50:31.236Z,21.65
2023-02-11T07:51:31.240Z,21.16
2023-02-11T07:52:31.217Z,25.94
2023-02-11T07:53:31.265Z,23.85
2023-02-11T07:54:31.231Z,31.19
2023-02-11T07:55:31.203Z,33.39
2023-02-11T07:56:31.208Z,29.85
2023-02-11T07:57:31.208Z,22.02
2023-02-11T07:58:31.244Z,24.71
2023-02-11T07:59:31.181Z,21.65
2023-02-11T08:00:31.258Z,22.87
2023-02-11T08:01:31.226Z,24.71
2023-02-11T08:02:31.269Z,19.08
2023-02-11T08:03:31.263Z,32.9
2023-02-11T08:04:31.208Z,37.68
2023-02-11T08:05:31.209Z,36.82
2023-02-11T08:06:31.214Z,43.31
2023-02-11T08:07:31.189Z,30.34
2023-02-11T08:08:31.192Z,27.28
2023-02-11T08:09:33.452Z,28.99
2023-02-11T08:10:31.208Z,25.56
2023-02-11T08:11:31.181Z,27.28
2023-02-11T08:12:31.214Z,28.63
2023-02-11T08:13:31.187Z,32.9
2023-02-11T08:14:31.264Z,31.56
2023-02-11T08:15:31.191Z,28.14
2023-02-11T08:16:31.338Z,33.76
2023-02-11T08:17:31.176Z,34.62
2023-02-11T08:18:31.282Z,34.25
2023-02-11T08:19:33.456Z,31.56
2023-02-11T08:20:31.207Z,32.9
2023-02-11T08:21:31.200Z,31.56
2023-02-11T08:22:31.231Z,32.05
2023-02-11T08:23:31.210Z,35.97
2023-02-11T08:24:31.215Z,35.11
2023-02-11T08:25:31.245Z,36.33
2023-02-11T08:26:31.214Z,36.33
2023-02-11T08:27:31.203Z,33.76
2023-02-11T08:28:31.238Z,33.76
2023-02-11T08:29:31.205Z,32.9
2023-02-11T08:30:31.238Z,34.62
2023-02-11T08:31:31.416Z,35.11
2023-02-11T08:32:31.208Z,38.53
2023-02-11T08:33:31.227Z,39.39
2023-02-11T08:34:31.235Z,44.16
2023-02-11T08:35:31.211Z,38.17
2023-02-11T08:36:31.187Z,43.8
2023-02-11T08:37:33.074Z,34.25
2023-02-11T08:38:31.202Z,32.05
2023-02-11T08:39:31.164Z,34.25
2023-02-11T08:40:31.285Z,37.68
2023-02-11T08:41:31.211Z,36.82
2023-02-11T08:42:31.243Z,35.97
2023-02-11T08:43:31.194Z,33.39
2023-02-11T08:44:31.193Z,32.42
2023-02-11T08:45:31.271Z,35.97
2023-02-11T08:46:31.372Z,32.42
2023-02-11T08:47:31.225Z,30.34
2023-02-11T08:48:31.201Z,27.65
2023-02-11T08:49:31.203Z,22.02
2023-02-11T08:50:31.215Z,21.16
2023-02-11T08:51:31.274Z,22.02
2023-02-11T08:52:31.193Z,21.65
2023-02-11T08:53:31.187Z,22.87
2023-02-11T08:54:31.216Z,23.36
2023-02-11T08:55:31.183Z,23.36
2023-02-11T08:56:31.176Z,26.42
2023-02-11T08:57:31.176Z,25.94
2023-02-11T08:58:31.221Z,27.65
2023-02-11T08:59:31.213Z,22.51
2023-02-11T09:00:31.204Z,18.6
2023-02-11T09:01:31.330Z,24.22
2023-02-11T09:02:31.300Z,21.65
2023-02-11T09:03:31.227Z,19.08
2023-02-11T09:04:31.185Z,21.65
2023-02-11T09:05:31.201Z,22.51
2023-02-11T09:06:31.257Z,19.45
2023-02-11T09:07:31.263Z,23.85
2023-02-11T09:08:31.168Z,21.65
2023-02-11T09:09:31.196Z,23.36
2023-02-11T09:10:31.214Z,28.99
2023-02-11T09:11:31.220Z,27.65
2023-02-11T09:12:31.212Z,29.85
2023-02-11T09:13:31.221Z,33.39
2023-02-11T09:14:31.186Z,37.68
2023-02-11T09:15:31.310Z,42.45
2023-02-11T09:16:31.277Z,36.82
2023-02-11T09:17:31.198Z,39.39
2023-02-11T09:18:31.210Z,38.17
2023-02-11T09:19:31.190Z,35.11
2023-02-11T09:20:31.193Z,41.1
2023-02-11T09:21:31.248Z,36.33
2023-02-11T09:22:31.239Z,36.82
2023-02-11T09:23:31.162Z,38.17
2023-02-11T09:24:31.240Z,31.56
2023-02-11T09:25:31.216Z,31.56
2023-02-11T09:26:31.215Z,31.56
2023-02-11T09:27:31.203Z,32.05
2023-02-11T09:28:31.256Z,33.39
2023-02-11T09:29:31.193Z,36.82
2023-02-11T09:30:31.290Z,31.56
2023-02-11T09:31:31.741Z,30.34
2023-02-11T09:32:31.211Z,36.82
2023-02-11T09:33:31.178Z,41.1
2023-02-11T09:34:32.142Z,32.42
2023-02-11T09:35:36.004Z,45.87
2023-02-11T09:36:40.046Z,30.34
2023-02-11T09:37:43.960Z,36.82
2023-02-11T09:38:47.990Z,48.07
2023-02-11T09:39:51.974Z,50.28
2023-02-11T09:40:56.002Z,51.99
2023-02-11T09:41:59.953Z,41.59
2023-02-11T09:43:04.243Z,43.31
2023-02-11T09:44:08.000Z,37.68
2023-02-11T09:45:11.978Z,55.05
2023-02-11T09:46:16.096Z,46.73
2023-02-11T09:47:19.984Z,49.79
2023-02-11T09:48:23.963Z,42.45
2023-02-11T09:49:27.965Z,31.19
2023-02-11T09:50:31.194Z,35.48
2023-02-11T09:51:31.182Z,35.97
2023-02-11T09:52:31.165Z,34.62
2023-02-11T09:53:31.189Z,30.7
2023-02-11T09:54:31.173Z,24.71
2023-02-11T09:55:31.207Z,29.48
2023-02-11T09:56:31.248Z,25.07
2023-02-11T09:57:31.282Z,35.11
2023-02-11T09:58:31.196Z,35.97
2023-02-11T09:59:31.201Z,27.65
2023-02-11T10:00:31.217Z,35.11
2023-02-11T10:01:31.364Z,45.87
2023-02-11T10:02:31.244Z,32.05
2023-02-11T10:03:31.208Z,41.1
2023-02-11T10:04:31.258Z,32.42
2023-02-11T10:05:31.290Z,35.48
2023-02-11T10:06:31.178Z,35.48
2023-02-11T10:07:31.210Z,35.97
2023-02-11T10:08:31.187Z,27.65
2023-02-11T10:09:31.199Z,30.34
2023-02-11T10:10:31.173Z,45.51
2023-02-11T10:11:32.361Z,36.33
2023-02-11T10:12:31.154Z,34.62
2023-02-11T10:13:31.220Z,29.85
2023-02-11T10:14:31.170Z,34.62
2023-02-11T10:15:31.220Z,32.42
2023-02-11T10:16:31.214Z,30.34
2023-02-11T10:17:31.206Z,30.34
2023-02-11T10:18:31.206Z,28.99
2023-02-11T10:19:31.172Z,35.97
2023-02-11T10:20:31.248Z,32.9
2023-02-11T10:21:31.245Z,33.39
2023-02-11T10:22:31.234Z,31.56
2023-02-11T10:23:31.203Z,27.65
2023-02-11T10:24:31.152Z,30.34
2023-02-11T10:25:31.190Z,32.9
2023-02-11T10:26:31.223Z,27.65
2023-02-11T10:27:31.235Z,42.45
2023-02-11T10:28:31.318Z,37.19
2023-02-11T10:29:31.162Z,28.63
2023-02-11T10:30:31.221Z,32.9
2023-02-11T10:31:31.328Z,26.79
2023-02-11T10:32:31.187Z,28.63
2023-02-11T10:33:31.213Z,29.85
2023-02-11T10:34:31.197Z,32.42
2023-02-11T10:35:31.244Z,26.42
2023-02-11T10:36:31.177Z,30.7
2023-02-11T10:37:31.201Z,28.14
2023-02-11T10:38:31.204Z,26.42
2023-02-11T10:39:31.205Z,27.65
2023-02-11T10:40:31.163Z,38.53
2023-02-11T10:41:31.195Z,33.76
2023-02-11T10:42:31.227Z,28.99
2023-02-11T10:43:31.200Z,34.62
2023-02-11T10:44:31.185Z,35.48
2023-02-11T10:45:31.186Z,33.39
2023-02-11T10:46:31.203Z,32.42
2023-02-11T10:47:31.239Z,36.33
2023-02-11T10:48:31.167Z,28.99
2023-02-11T10:49:31.172Z,32.9
2023-02-11T10:50:31.249Z,29.85
2023-02-11T10:51:31.186Z,32.42
2023-02-11T10:52:31.231Z,36.33
2023-02-11T10:53:31.172Z,32.9
2023-02-11T10:54:31.223Z,35.11
2023-02-11T10:55:31.222Z,40.73
2023-02-11T10:56:31.182Z,52.48
2023-02-11T10:57:31.173Z,49.79
2023-02-11T10:58:31.192Z,55.41
2023-02-11T10:59:31.211Z,60.19
2023-02-11T11:00:31.194Z,48.56
2023-02-11T11:01:31.220Z,61.17
2023-02-11T11:02:31.199Z,70.71
2023-02-11T11:03:31.196Z,68.51
2023-02-11T11:04:31.233Z,65.94
2023-02-11T11:05:31.231Z,79.27
2023-02-11T11:06:31.194Z,66.8
2023-02-11T11:07:31.213Z,64.96
2023-02-11T11:08:31.170Z,71.07
2023-02-11T11:09:31.382Z,80.25
2023-02-11T11:10:31.182Z,75.85
2023-02-11T11:11:31.194Z,62.39
2023-02-11T11:12:31.240Z,58.48
2023-02-11T11:13:31.201Z,52.48
2023-02-11T11:14:31.221Z,54.56
2023-02-11T11:15:31.281Z,38.53
2023-02-11T11:16:31.280Z,39.02
2023-02-11T11:17:31.273Z,33.76
2023-02-11T11:18:31.243Z,40.73
2023-02-11T11:19:31.222Z,34.62
2023-02-11T11:20:31.442Z,35.97
2023-02-11T11:21:31.215Z,29.85
2023-02-11T11:22:31.213Z,33.76
2023-02-11T11:23:31.225Z,33.39
2023-02-11T11:24:31.210Z,33.39
2023-02-11T11:25:31.152Z,44.65
2023-02-11T11:26:31.217Z,51.99
2023-02-11T11:27:31.181Z,44.65
2023-02-11T11:28:31.258Z,33.76
2023-02-11T11:29:31.189Z,34.25
2023-02-11T11:30:31.178Z,31.56
2023-02-11T11:31:31.324Z,31.56
2023-02-11T11:32:31.140Z,36.82
2023-02-11T11:33:31.189Z,38.17
2023-02-11T11:34:31.177Z,41.59
2023-02-11T11:35:31.204Z,36.33
2023-02-11T11:36:31.179Z,34.62
2023-02-11T11:37:31.189Z,39.39
2023-02-11T11:38:31.199Z,45.87
2023-02-11T11:39:31.197Z,37.68
2023-02-11T11:40:31.161Z,35.11
2023-02-11T11:41:31.205Z,41.96
2023-02-11T11:42:31.198Z,41.59
2023-02-11T11:43:31.195Z,39.02
2023-02-11T11:44:31.172Z,39.02
2023-02-11T11:45:31.146Z,39.39
2023-02-11T11:46:31.213Z,38.53
2023-02-11T11:47:31.326Z,40.24
2023-02-11T11:48:31.143Z,31.19
2023-02-11T11:49:31.177Z,36.82
2023-02-11T11:50:31.231Z,37.68
2023-02-11T11:51:31.243Z,42.45
2023-02-11T11:52:31.297Z,34.62
2023-02-11T11:53:31.265Z,35.11
2023-02-11T11:54:31.169Z,38.53
2023-02-11T11:55:31.221Z,38.17
2023-02-11T11:56:31.380Z,31.56
2023-02-11T11:57:31.314Z,33.76
2023-02-11T11:58:31.225Z,36.82
2023-02-11T11:59:31.219Z,39.39
2023-02-11T12:00:31.247Z,32.9
2023-02-11T12:01:31.339Z,35.48
2023-02-11T12:02:31.137Z,34.62
2023-02-11T12:03:31.325Z,32.42
2023-02-11T12:04:31.165Z,33.76
2023-02-11T12:05:31.185Z,40.73
2023-02-11T12:06:31.174Z,53.7
2023-02-11T12:07:31.189Z,45.02
2023-02-11T12:08:31.189Z,51.99
2023-02-11T12:09:31.187Z,41.1
2023-02-11T12:10:31.170Z,35.48
2023-02-11T12:11:31.199Z,40.24
2023-02-11T12:12:31.156Z,37.68
2023-02-11T12:13:31.172Z,52.48
2023-02-11T12:14:31.172Z,62.88
2023-02-11T12:15:31.356Z,42.94
2023-02-11T12:16:31.185Z,43.8
2023-02-11T12:17:31.170Z,42.94
2023-02-11T12:18:31.173Z,27.65
2023-02-11T12:19:31.207Z,37.68
2023-02-11T12:20:31.176Z,37.68
2023-02-11T12:21:31.189Z,39.39
2023-02-11T12:22:31.143Z,41.59
2023-02-11T12:23:31.170Z,30.7
2023-02-11T12:24:31.176Z,41.1
2023-02-11T12:25:31.184Z,37.68
2023-02-11T12:26:31.190Z,37.68
2023-02-11T12:27:31.141Z,41.59
2023-02-11T12:28:31.219Z,33.39
2023-02-11T12:29:31.146Z,30.34
2023-02-11T12:30:31.204Z,33.39
2023-02-11T12:31:31.243Z,40.73
2023-02-11T12:32:31.186Z,36.82
2023-02-11T12:33:31.172Z,31.19
2023-02-11T12:34:31.193Z,30.7
2023-02-11T12:35:31.186Z,30.7
2023-02-11T12:36:31.198Z,28.14
2023-02-11T12:37:31.170Z,31.19
2023-02-11T12:38:31.194Z,28.99
2023-02-11T12:39:31.189Z,32.05
2023-02-11T12:40:31.171Z,31.19
2023-02-11T12:41:31.150Z,34.25
2023-02-11T12:42:31.155Z,32.42
2023-02-11T12:43:31.184Z,26.42
2023-02-11T12:44:31.220Z,31.19
2023-02-11T12:45:31.122Z,34.25
2023-02-11T12:46:31.169Z,29.85
2023-02-11T12:47:31.179Z,28.14
2023-02-11T12:48:31.223Z,29.48
2023-02-11T12:49:31.166Z,41.96
2023-02-11T12:50:31.183Z,42.45
2023-02-11T12:51:31.168Z,42.94
2023-02-11T12:52:31.185Z,47.71
2023-02-11T12:53:31.237Z,32.9
2023-02-11T12:54:31.470Z,32.42
2023-02-11T12:55:31.342Z,42.45
2023-02-11T12:56:32.227Z,42.94
2023-02-11T12:57:43.860Z,41.96
2023-02-11T12:58:47.946Z,36.82
2023-02-11T12:59:51.867Z,38.17
2023-02-11T13:00:56.187Z,37.68
2023-02-11T13:01:59.908Z,28.99
2023-02-11T13:03:04.048Z,35.48
2023-02-11T13:04:07.914Z,45.51
2023-02-11T13:05:14.223Z,52.48
2023-02-11T13:06:15.862Z,35.97
2023-02-11T13:07:19.954Z,27.65
2023-02-11T13:08:23.860Z,25.56
2023-02-11T13:09:27.902Z,38.17
2023-02-11T13:10:31.142Z,42.94
2023-02-11T13:11:31.178Z,32.9
2023-02-11T13:12:31.160Z,29.85
2023-02-11T13:13:31.186Z,29.48
2023-02-11T13:14:31.177Z,35.97
2023-02-11T13:15:31.183Z,35.48
2023-02-11T13:16:31.272Z,31.56
2023-02-11T13:17:31.150Z,30.34
2023-02-11T13:18:31.137Z,32.9
2023-02-11T13:19:31.165Z,36.82
2023-02-11T13:20:31.154Z,41.1
2023-02-11T13:21:31.275Z,28.99
2023-02-11T13:22:31.172Z,28.99
2023-02-11T13:23:31.650Z,39.88
2023-02-11T13:24:31.156Z,42.94
2023-02-11T13:25:31.169Z,48.56
2023-02-11T13:26:31.194Z,51.99
2023-02-11T13:27:31.175Z,41.96
2023-02-11T13:28:31.208Z,38.53
2023-02-11T13:29:31.168Z,35.97
2023-02-11T13:30:31.237Z,37.19
2023-02-11T13:31:31.250Z,36.33
2023-02-11T13:32:31.162Z,37.68
2023-02-11T13:33:31.179Z,39.39
2023-02-11T13:34:31.197Z,34.62
2023-02-11T13:35:31.196Z,36.33
2023-02-11T13:36:31.174Z,35.48
2023-02-11T13:37:31.137Z,32.42
2023-02-11T13:38:31.194Z,30.34
2023-02-11T13:39:31.150Z,28.99
2023-02-11T13:40:31.155Z,29.85
2023-02-11T13:41:31.144Z,32.42
2023-02-11T13:42:31.184Z,33.39
2023-02-11T13:43:31.147Z,27.65
2023-02-11T13:44:31.168Z,28.14
2023-02-11T13:45:31.145Z,27.65
2023-02-11T13:46:31.176Z,27.65
2023-02-11T13:47:31.194Z,26.42
2023-02-11T13:48:31.157Z,28.14